Time;durP1;ratioP1;P1;durP2;ratioP2;P2;SDS_P1;SDS_P2;PMS_P1;PMS_P2;Temp;Humidity;BMP_temperature;BMP_pressure;BME280_temperature;BME280_humidity;BME280_pressure;Samples;Min_cycle;Max_cycle;Signal;HPM_P1;HPM_P2
2021/09/20 00:00:09;;;;;;;6.13;5.63;;;16.40;99.90;;;;;;5033282;28;20202;-61
2021/09/20 00:02:35;;;;;;;6.23;5.73;;;16.20;99.90;;;;;;5033595;28;20172;-60
2021/09/20 00:05:01;;;;;;;6.00;5.40;;;16.30;99.90;;;;;;5033306;28;20407;-58
2021/09/20 00:07:27;;;;;;;5.67;5.07;;;16.50;99.90;;;;;;5032939;28;20639;-59
2021/09/20 00:09:52;;;;;;;5.73;5.23;;;16.40;99.90;;;;;;5033192;28;20175;-59
2021/09/20 00:12:18;;;;;;;6.73;6.00;;;16.40;99.90;;;;;;5032132;28;20178;-61
2021/09/20 00:14:43;;;;;;;5.70;5.20;;;16.40;99.90;;;;;;5021931;28;20224;-60
2021/09/20 00:17:09;;;;;;;6.27;5.67;;;16.40;99.90;;;;;;5033036;28;20167;-60
2021/09/20 00:19:35;;;;;;;6.53;5.93;;;16.30;99.90;;;;;;5033303;28;20170;-60
2021/09/20 00:22:00;;;;;;;5.40;4.90;;;16.40;99.90;;;;;;5032846;28;20175;-60
2021/09/20 00:24:26;;;;;;;7.60;6.13;;;16.40;99.90;;;;;;5032897;28;20340;-60
2021/09/20 00:26:51;;;;;;;6.73;6.20;;;16.40;99.90;;;;;;5033147;28;20164;-60
2021/09/20 00:29:17;;;;;;;7.20;6.60;;;16.30;99.90;;;;;;5033261;28;20172;-59
2021/09/20 00:31:43;;;;;;;6.27;5.67;;;16.40;99.90;;;;;;5033044;28;20174;-60
2021/09/20 00:34:08;;;;;;;7.37;6.00;;;16.50;99.90;;;;;;5032813;28;20209;-60
2021/09/20 00:36:34;;;;;;;7.37;6.67;;;16.60;99.90;;;;;;5032974;28;20249;-59
2021/09/20 00:38:59;;;;;;;6.43;5.87;;;16.50;99.90;;;;;;5032772;28;20765;-61
2021/09/20 00:41:25;;;;;;;7.50;6.90;;;16.40;99.90;;;;;;5033182;28;20172;-60
2021/09/20 00:43:51;;;;;;;6.83;5.73;;;16.50;99.90;;;;;;5032836;28;20715;-60
2021/09/20 00:46:17;;;;;;;6.27;5.77;;;16.50;99.90;;;;;;5033109;28;20262;-60
2021/09/20 00:48:42;;;;;;;6.20;5.67;;;16.30;99.90;;;;;;5032852;28;20197;-60
2021/09/20 00:51:08;;;;;;;6.93;6.33;;;16.30;99.90;;;;;;5032692;28;20832;-59
2021/09/20 00:53:34;;;;;;;6.13;5.63;;;16.20;99.90;;;;;;5032527;28;20188;-60
2021/09/20 00:55:59;;;;;;;7.97;6.20;;;16.20;99.90;;;;;;5032888;28;20178;-59
2021/09/20 00:58:25;;;;;;;6.70;6.00;;;16.00;99.90;;;;;;5033336;28;20214;-60
2021/09/20 01:00:51;;;;;;;6.47;5.80;;;16.00;99.90;;;;;;5032976;28;20573;-61
2021/09/20 01:03:16;;;;;;;5.27;4.87;;;16.20;99.90;;;;;;5032669;28;20184;-61
2021/09/20 01:05:42;;;;;;;6.80;6.07;;;16.40;99.90;;;;;;5033433;28;20615;-61
2021/09/20 01:08:08;;;;;;;8.37;7.50;;;16.40;99.90;;;;;;5033112;28;20206;-61
2021/09/20 01:10:34;;;;;;;6.93;6.33;;;16.40;99.90;;;;;;5036419;28;20185;-61
2021/09/20 01:12:59;;;;;;;5.53;5.13;;;16.50;99.90;;;;;;5036631;28;20183;-60
2021/09/20 01:15:25;;;;;;;5.87;5.37;;;16.60;99.90;;;;;;5036367;28;20724;-60
2021/09/20 01:17:50;;;;;;;6.17;5.67;;;16.60;99.90;;;;;;5036466;28;20173;-60
2021/09/20 01:20:16;;;;;;;6.83;6.23;;;16.70;99.90;;;;;;5036532;28;20172;-59
2021/09/20 01:22:45;;;;;;;6.30;5.80;;;16.60;99.90;;;;;;5035712;28;20210;-60
2021/09/20 01:25:11;;;;;;;6.30;5.80;;;16.60;99.90;;;;;;5036213;28;20182;-61
2021/09/20 01:27:36;;;;;;;5.83;5.23;;;16.60;99.90;;;;;;5036022;28;20402;-61
2021/09/20 01:30:04;;;;;;;5.40;5.00;;;16.60;99.90;;;;;;5036553;28;20828;-61
2021/09/20 01:32:30;;;;;;;6.47;5.87;;;16.60;99.90;;;;;;5035942;28;20173;-62
2021/09/20 01:34:55;;;;;;;6.03;5.50;;;16.60;99.90;;;;;;5035767;28;20461;-60
2021/09/20 01:37:21;;;;;;;5.90;5.33;;;16.70;99.90;;;;;;5035763;28;20171;-61
2021/09/20 01:39:46;;;;;;;5.07;4.67;;;16.70;99.90;;;;;;5035628;28;20170;-61
2021/09/20 01:42:12;;;;;;;6.37;5.87;;;16.70;99.90;;;;;;5035702;28;20257;-61
2021/09/20 01:44:38;;;;;;;6.17;5.57;;;16.70;99.90;;;;;;5035563;28;20201;-60
2021/09/20 01:47:04;;;;;;;6.60;5.20;;;16.70;99.90;;;;;;5035786;28;20646;-60
2021/09/20 01:49:30;;;;;;;7.33;6.63;;;16.60;99.90;;;;;;5031753;28;20261;-60
2021/09/20 01:51:57;;;;;;;6.67;5.97;;;16.60;99.90;;;;;;5029942;28;20420;-60
2021/09/20 01:54:23;;;;;;;7.07;6.47;;;16.40;99.90;;;;;;5034939;28;20548;-60
2021/09/20 01:56:48;;;;;;;7.67;6.97;;;16.00;99.90;;;;;;5035524;28;20495;-60
2021/09/20 01:59:14;;;;;;;6.27;5.67;;;16.00;99.90;;;;;;5035276;28;20172;-60
2021/09/20 02:01:39;;;;;;;8.00;7.30;;;16.00;99.90;;;;;;5035259;28;20169;-60
2021/09/20 02:04:05;;;;;;;7.47;6.77;;;16.00;99.90;;;;;;5035126;28;20287;-60
2021/09/20 02:06:31;;;;;;;5.67;5.17;;;16.00;99.90;;;;;;5035247;28;20592;-60
2021/09/20 02:08:57;;;;;;;6.50;5.90;;;15.90;99.90;;;;;;5035058;28;20173;-60
2021/09/20 02:11:23;;;;;;;6.83;6.23;;;16.00;99.90;;;;;;5035214;28;20173;-60
2021/09/20 02:13:51;;;;;;;7.00;6.30;;;15.90;99.90;;;;;;5035268;28;20239;-62
2021/09/20 02:16:17;;;;;;;8.27;6.10;;;16.00;99.90;;;;;;5034861;28;20826;-60
2021/09/20 02:18:42;;;;;;;7.13;6.53;;;16.00;99.90;;;;;;5034881;28;20450;-62
2021/09/20 02:21:09;;;;;;;7.00;6.30;;;16.00;99.90;;;;;;5033867;28;20196;-60
2021/09/20 02:23:36;;;;;;;7.60;6.90;;;16.10;99.90;;;;;;5034371;28;20188;-60
2021/09/20 02:26:03;;;;;;;7.00;6.40;;;16.10;99.90;;;;;;5034961;28;20409;-60
2021/09/20 02:28:28;;;;;;;8.27;7.57;;;16.00;99.90;;;;;;5035346;28;20508;-60
2021/09/20 02:30:54;;;;;;;7.40;6.60;;;15.90;99.90;;;;;;5034676;28;20436;-61
2021/09/20 02:33:20;;;;;;;6.67;6.07;;;16.00;99.90;;;;;;5034582;28;20258;-61
2021/09/20 02:35:46;;;;;;;6.67;6.07;;;16.00;99.90;;;;;;5035186;28;20155;-60
2021/09/20 02:38:11;;;;;;;7.00;6.40;;;16.00;99.90;;;;;;5034148;28;20546;-61
2021/09/20 02:40:37;;;;;;;6.57;6.00;;;16.10;99.90;;;;;;5034693;28;20399;-60
2021/09/20 02:43:03;;;;;;;7.10;6.50;;;16.10;99.90;;;;;;5034615;28;20195;-61
2021/09/20 02:45:29;;;;;;;6.80;6.20;;;16.10;99.90;;;;;;5035092;28;20177;-61
2021/09/20 02:47:55;;;;;;;7.10;6.10;;;16.00;99.90;;;;;;5034606;28;20424;-61
2021/09/20 02:50:21;;;;;;;7.00;6.40;;;16.00;99.90;;;;;;5034510;28;20178;-61
2021/09/20 02:52:46;;;;;;;7.50;6.80;;;16.10;99.90;;;;;;5033787;28;20406;-61
2021/09/20 02:55:12;;;;;;;6.93;5.47;;;16.20;99.90;;;;;;5034444;28;20224;-61
2021/09/20 02:57:38;;;;;;;6.40;5.80;;;16.10;99.90;;;;;;5034205;28;20199;-61
2021/09/20 03:00:06;;;;;;;5.97;5.37;;;16.20;99.90;;;;;;5034215;28;20414;-61
2021/09/20 03:02:32;;;;;;;5.67;5.17;;;16.20;99.90;;;;;;5034001;28;20440;-61
2021/09/20 03:04:58;;;;;;;5.80;5.30;;;16.20;99.90;;;;;;5033642;28;20401;-62
2021/09/20 03:07:23;;;;;;;7.00;6.40;;;16.20;99.90;;;;;;5022918;28;20181;-59
2021/09/20 03:09:49;;;;;;;5.60;5.10;;;16.20;99.90;;;;;;5033962;28;20262;-60
2021/09/20 03:12:14;;;;;;;9.33;6.50;;;16.20;99.90;;;;;;5034155;28;20188;-61
2021/09/20 03:14:40;;;;;;;6.07;5.57;;;16.00;99.90;;;;;;5033829;28;20213;-61
2021/09/20 03:17:06;;;;;;;5.97;5.37;;;16.10;99.90;;;;;;5034151;28;20257;-61
2021/09/20 03:19:32;;;;;;;6.70;5.13;;;16.10;99.90;;;;;;5033890;28;20469;-61
2021/09/20 03:21:57;;;;;;;6.70;6.10;;;16.00;99.90;;;;;;5033628;28;20185;-62
2021/09/20 03:24:23;;;;;;;6.70;6.10;;;16.00;99.90;;;;;;5033507;28;20242;-61
2021/09/20 03:26:49;;;;;;;6.57;5.97;;;16.00;99.90;;;;;;5033692;28;20174;-62
2021/09/20 03:29:14;;;;;;;8.00;6.37;;;15.80;99.90;;;;;;5034080;28;20417;-62
2021/09/20 03:31:40;;;;;;;6.63;6.00;;;15.70;99.90;;;;;;5033640;28;20812;-62
2021/09/20 03:34:06;;;;;;;7.40;6.30;;;15.70;99.90;;;;;;5056356;22;20229;-58
2021/09/20 03:36:32;;;;;;;6.10;5.60;;;15.80;99.90;;;;;;5024364;28;20543;-59
2021/09/20 03:38:57;;;;;;;6.90;6.20;;;15.80;99.90;;;;;;5026529;28;20169;-57
2021/09/20 03:41:23;;;;;;;6.60;6.00;;;15.60;99.90;;;;;;5033275;28;20170;-58
2021/09/20 03:43:49;;;;;;;6.20;5.60;;;15.60;99.90;;;;;;5033403;28;20277;-59
2021/09/20 03:46:15;;;;;;;7.20;6.50;;;15.70;99.90;;;;;;5033689;28;20406;-57
2021/09/20 03:48:40;;;;;;;7.70;7.00;;;15.70;99.90;;;;;;5016014;28;20179;-59
2021/09/20 03:51:06;;;;;;;6.80;6.30;;;15.60;99.90;;;;;;5033403;28;20189;-58
2021/09/20 03:53:34;;;;;;;6.33;5.70;;;15.70;99.90;;;;;;5033332;28;20187;-59
2021/09/20 03:56:00;;;;;;;7.20;6.47;;;15.90;99.90;;;;;;5033840;28;20409;-58
2021/09/20 03:58:25;;;;;;;6.80;5.03;;;15.90;99.90;;;;;;5033249;28;20819;-58
2021/09/20 04:00:51;;;;;;;6.30;5.70;;;15.90;99.90;;;;;;5033397;28;20174;-58
2021/09/20 04:03:17;;;;;;;6.80;6.20;;;15.90;99.90;;;;;;5033369;28;20175;-58
2021/09/20 04:05:42;;;;;;;8.03;6.60;;;16.00;99.90;;;;;;5033154;28;20306;-57
2021/09/20 04:08:10;;;;;;;6.20;5.70;;;15.90;99.90;;;;;;5033319;28;20185;-57
2021/09/20 04:10:35;;;;;;;7.43;6.70;;;15.80;99.90;;;;;;5033473;28;20267;-58
2021/09/20 04:13:01;;;;;;;6.50;5.90;;;15.70;99.90;;;;;;5033354;28;20511;-58
2021/09/20 04:15:27;;;;;;;6.23;5.63;;;15.60;99.90;;;;;;5033522;28;20188;-58
2021/09/20 04:17:52;;;;;;;6.70;6.10;;;15.50;99.90;;;;;;5033417;28;20225;-58
2021/09/20 04:20:18;;;;;;;6.90;6.20;;;15.50;99.90;;;;;;5033024;28;20557;-58
2021/09/20 04:22:43;;;;;;;6.90;6.20;;;15.40;99.90;;;;;;5032979;28;20171;-59
2021/09/20 04:25:10;;;;;;;6.97;6.27;;;15.40;99.90;;;;;;5033523;28;20243;-59
2021/09/20 04:27:36;;;;;;;7.83;6.30;;;15.50;99.90;;;;;;5033294;28;20176;-59
2021/09/20 04:30:03;;;;;;;7.23;5.80;;;15.50;99.90;;;;;;5033611;28;20411;-55
2021/09/20 04:32:28;;;;;;;5.63;5.13;;;15.50;99.90;;;;;;5033190;28;20181;-59
2021/09/20 04:34:54;;;;;;;6.50;5.90;;;15.50;99.90;;;;;;5032625;28;20459;-55
2021/09/20 04:37:20;;;;;;;6.90;6.20;;;15.60;99.90;;;;;;5033252;28;20173;-57
2021/09/20 04:39:46;;;;;;;7.30;6.10;;;15.70;99.90;;;;;;5033639;28;20164;-56
2021/09/20 04:42:12;;;;;;;6.00;5.40;;;15.60;99.90;;;;;;5033388;28;20168;-57
2021/09/20 04:44:39;;;;;;;8.37;7.57;;;15.60;99.90;;;;;;5036406;28;20429;-57
2021/09/20 04:47:05;;;;;;;7.93;6.93;;;15.60;99.90;;;;;;5037399;28;20436;-53
2021/09/20 04:49:30;;;;;;;6.33;5.60;;;15.60;99.90;;;;;;5037224;28;20465;-53
2021/09/20 04:51:56;;;;;;;5.90;5.40;;;15.60;99.90;;;;;;5037108;28;20450;-55
2021/09/20 04:54:22;;;;;;;6.53;5.97;;;15.60;99.90;;;;;;5036875;28;20200;-57
2021/09/20 04:56:47;;;;;;;6.33;5.83;;;15.70;99.90;;;;;;5037705;28;20170;-59
2021/09/20 04:59:13;;;;;;;6.80;5.83;;;15.60;99.90;;;;;;5037363;28;20576;-57
2021/09/20 05:01:39;;;;;;;6.93;6.23;;;15.70;99.90;;;;;;5037543;28;20221;-58
2021/09/20 05:04:04;;;;;;;7.07;6.37;;;15.60;99.90;;;;;;5037116;28;20202;-58
2021/09/20 05:06:30;;;;;;;6.90;6.30;;;15.50;99.90;;;;;;5037181;28;20181;-58
2021/09/20 05:08:56;;;;;;;7.27;6.57;;;15.40;99.90;;;;;;5036630;28;20605;-58
2021/09/20 05:11:22;;;;;;;7.53;5.97;;;15.50;99.90;;;;;;5037180;28;20173;-58
2021/09/20 05:13:47;;;;;;;8.40;6.03;;;15.60;99.90;;;;;;5036591;28;20191;-58
2021/09/20 05:16:13;;;;;;;7.27;6.27;;;15.60;99.90;;;;;;5037039;28;20927;-56
2021/09/20 05:18:39;;;;;;;11.00;6.50;;;15.70;99.90;;;;;;5036865;28;20168;-55
2021/09/20 05:21:04;;;;;;;6.57;5.97;;;15.80;99.90;;;;;;5036375;28;20444;-56
2021/09/20 05:23:30;;;;;;;6.60;6.03;;;15.80;99.90;;;;;;5036240;28;20193;-55
2021/09/20 05:25:56;;;;;;;6.30;5.70;;;15.80;99.90;;;;;;5036334;28;20758;-55
2021/09/20 05:28:21;;;;;;;6.77;6.17;;;15.70;99.90;;;;;;5036422;28;20643;-53
2021/09/20 05:30:47;;;;;;;7.30;6.60;;;15.60;99.90;;;;;;5036604;28;20173;-53
2021/09/20 05:33:15;;;;;;;7.00;6.30;;;15.60;99.90;;;;;;5038578;28;20167;-58
2021/09/20 05:35:41;;;;;;;6.83;6.00;;;15.60;99.90;;;;;;5035968;28;20225;-54
2021/09/20 05:38:07;;;;;;;7.70;6.80;;;15.60;99.90;;;;;;5036351;28;20467;-56
2021/09/20 05:40:33;;;;;;;7.23;5.80;;;15.70;99.90;;;;;;5036530;28;20407;-54
2021/09/20 05:43:00;;;;;;;6.50;5.90;;;15.80;99.90;;;;;;5037010;28;20250;-59
2021/09/20 05:45:26;;;;;;;6.60;6.00;;;16.00;99.90;;;;;;5036492;28;20918;-58
2021/09/20 05:47:53;;;;;;;5.80;5.30;;;16.10;99.90;;;;;;5036251;28;20491;-56
2021/09/20 05:50:20;;;;;;;5.80;5.30;;;16.10;99.90;;;;;;5035751;28;20412;-58
2021/09/20 05:52:47;;;;;;;6.83;6.13;;;16.20;99.90;;;;;;5036003;28;20421;-56
2021/09/20 05:55:14;;;;;;;8.00;6.17;;;16.30;99.90;;;;;;5034319;28;20455;-57
2021/09/20 05:57:40;;;;;;;7.23;6.53;;;16.30;99.90;;;;;;5036239;28;20426;-58
2021/09/20 06:00:07;;;;;;;6.50;5.97;;;16.30;99.90;;;;;;5035628;28;20809;-57
2021/09/20 06:02:33;;;;;;;7.47;6.77;;;16.20;99.90;;;;;;5017915;28;20793;-58
2021/09/20 06:04:58;;;;;;;6.93;6.33;;;16.20;99.90;;;;;;5035121;28;20436;-55
2021/09/20 06:07:24;;;;;;;7.33;6.67;;;16.20;99.90;;;;;;5035997;28;20166;-56
2021/09/20 06:09:49;;;;;;;5.40;4.93;;;16.30;99.90;;;;;;5035324;28;20170;-58
2021/09/20 06:12:15;;;;;;;6.83;6.23;;;16.40;99.90;;;;;;5035425;28;20542;-56
2021/09/20 06:14:40;;;;;;;6.60;5.90;;;16.40;99.90;;;;;;5035015;28;20202;-54
2021/09/20 06:17:06;;;;;;;7.20;6.50;;;16.50;99.90;;;;;;5035594;28;20173;-58
2021/09/20 06:19:32;;;;;;;6.83;6.23;;;16.70;99.90;;;;;;5035129;28;20169;-58
2021/09/20 06:21:57;;;;;;;6.23;5.73;;;16.80;99.90;;;;;;5035804;28;20168;-57
2021/09/20 06:24:23;;;;;;;6.70;6.10;;;16.80;99.90;;;;;;5035069;28;20264;-58
2021/09/20 06:26:49;;;;;;;8.00;7.20;;;16.70;99.90;;;;;;5017187;28;20209;-58
2021/09/20 06:29:15;;;;;;;6.37;5.77;;;16.70;99.90;;;;;;5032384;28;20171;-58
2021/09/20 06:31:40;;;;;;;8.57;7.73;;;16.80;99.90;;;;;;5035087;28;20197;-57
2021/09/20 06:34:06;;;;;;;8.20;7.43;;;16.90;99.90;;;;;;5034680;28;20534;-59
2021/09/20 06:36:32;;;;;;;8.57;7.67;;;17.00;99.90;;;;;;5034964;28;20186;-59
2021/09/20 06:38:57;;;;;;;7.77;7.03;;;17.00;99.90;;;;;;5034782;28;20249;-58
2021/09/20 06:41:25;;;;;;;7.27;6.57;;;16.90;99.90;;;;;;5034816;28;20174;-57
2021/09/20 06:43:50;;;;;;;9.30;8.40;;;16.90;99.90;;;;;;5029635;28;20216;-58
2021/09/20 06:46:16;;;;;;;10.17;7.93;;;16.80;99.90;;;;;;5034663;28;20447;-59
2021/09/20 06:48:42;;;;;;;9.80;8.57;;;16.90;99.90;;;;;;5033971;28;20228;-59
2021/09/20 06:51:08;;;;;;;10.00;9.10;;;16.80;99.90;;;;;;5026317;28;20182;-59
2021/09/20 06:53:34;;;;;;;8.27;7.47;;;16.50;99.90;;;;;;5033578;28;20457;-58
2021/09/20 06:56:00;;;;;;;10.40;9.40;;;16.70;99.90;;;;;;5034708;28;20442;-58
2021/09/20 06:58:25;;;;;;;9.23;8.30;;;16.80;99.90;;;;;;5034784;28;20163;-59
2021/09/20 07:00:51;;;;;;;9.20;8.37;;;16.70;99.90;;;;;;5034742;28;20182;-57
2021/09/20 07:03:17;;;;;;;9.00;8.07;;;16.80;99.90;;;;;;5034364;28;20533;-58
2021/09/20 07:05:42;;;;;;;10.00;9.00;;;16.90;99.90;;;;;;5033327;28;20182;-59
2021/09/20 07:08:08;;;;;;;10.17;9.20;;;16.80;99.90;;;;;;5034105;28;20247;-59
2021/09/20 07:10:34;;;;;;;9.27;8.37;;;16.90;99.90;;;;;;5034385;28;20175;-57
2021/09/20 07:13:00;;;;;;;10.37;9.10;;;17.00;99.90;;;;;;5034599;28;20418;-58
2021/09/20 07:15:26;;;;;;;9.73;8.63;;;17.00;99.90;;;;;;5034133;28;20516;-58
2021/09/20 07:17:52;;;;;;;11.77;8.57;;;16.90;99.90;;;;;;5034389;28;20398;-58
2021/09/20 07:20:18;;;;;;;8.80;8.00;;;16.80;99.90;;;;;;5033869;28;20424;-58
2021/09/20 07:22:44;;;;;;;11.40;8.20;;;16.80;99.90;;;;;;5033998;28;20217;-59
2021/09/20 07:25:11;;;;;;;10.40;9.27;;;16.90;99.90;;;;;;5033754;28;20187;-59
2021/09/20 07:27:37;;;;;;;9.30;8.30;;;16.90;99.90;;;;;;5033843;28;20405;-58
2021/09/20 07:30:05;;;;;;;9.07;8.17;;;17.00;99.90;;;;;;5033828;28;20437;-58
2021/09/20 07:32:31;;;;;;;10.00;9.00;;;17.00;99.90;;;;;;5033979;28;20410;-58
2021/09/20 07:34:56;;;;;;;14.17;10.83;;;17.20;99.90;;;;;;5033131;28;20518;-59
2021/09/20 07:37:22;;;;;;;9.87;8.97;;;17.30;99.90;;;;;;5033684;28;20519;-57
2021/09/20 07:39:47;;;;;;;11.63;10.47;;;17.10;99.90;;;;;;5034146;28;20608;-58
2021/09/20 07:42:13;;;;;;;12.50;10.30;;;16.80;99.90;;;;;;5033942;28;20177;-57
2021/09/20 07:44:39;;;;;;;11.50;10.10;;;16.90;99.90;;;;;;5015818;28;20194;-58
2021/09/20 07:47:04;;;;;;;11.27;10.10;;;16.80;99.90;;;;;;5033539;28;20167;-55
2021/09/20 07:49:30;;;;;;;11.40;10.30;;;16.80;99.90;;;;;;5033796;28;20175;-56
2021/09/20 07:51:56;;;;;;;14.03;9.73;;;16.70;99.90;;;;;;5033304;28;20167;-58
2021/09/20 07:54:21;;;;;;;10.60;9.43;;;16.80;99.90;;;;;;5033040;28;20559;-56
2021/09/20 07:56:47;;;;;;;11.63;10.43;;;16.90;99.90;;;;;;5033484;28;20171;-59
2021/09/20 07:59:12;;;;;;;11.33;10.27;;;17.10;99.90;;;;;;5033683;28;20253;-57
2021/09/20 08:01:38;;;;;;;12.70;10.50;;;17.00;99.90;;;;;;5033737;28;20201;-58
2021/09/20 08:04:04;;;;;;;11.73;10.50;;;17.20;99.90;;;;;;5033816;28;20193;-61
2021/09/20 08:06:30;;;;;;;11.97;10.70;;;17.30;99.90;;;;;;5033435;28;20247;-60
2021/09/20 08:08:55;;;;;;;12.70;11.10;;;17.40;99.90;;;;;;5033399;28;20690;-60
2021/09/20 08:11:21;;;;;;;12.40;10.87;;;17.30;99.90;;;;;;5033700;28;20545;-58
2021/09/20 08:13:47;;;;;;;14.47;11.20;;;17.40;99.90;;;;;;5033187;28;20191;-59
2021/09/20 08:16:13;;;;;;;13.70;11.20;;;17.40;99.90;;;;;;5033409;28;20403;-60
2021/09/20 08:18:38;;;;;;;13.50;11.10;;;17.10;99.90;;;;;;5014956;28;20166;-58
2021/09/20 08:21:06;;;;;;;14.27;10.23;;;17.20;99.90;;;;;;5033193;28;20187;-60
2021/09/20 08:23:32;;;;;;;12.23;10.87;;;17.40;99.90;;;;;;5033186;28;20194;-59
2021/09/20 08:25:58;;;;;;;13.93;11.40;;;17.40;99.90;;;;;;5033262;28;20452;-60
2021/09/20 08:28:24;;;;;;;14.70;12.30;;;17.40;99.90;;;;;;5033509;28;20774;-60
2021/09/20 08:30:49;;;;;;;15.00;12.73;;;17.60;99.90;;;;;;5033162;28;20163;-59
2021/09/20 08:33:15;;;;;;;14.20;11.33;;;17.60;99.90;;;;;;5032930;28;20274;-59
2021/09/20 08:35:41;;;;;;;16.10;13.07;;;17.50;99.90;;;;;;5032800;28;20237;-58
2021/09/20 08:38:06;;;;;;;13.50;12.10;;;17.50;99.90;;;;;;5032716;28;20174;-58
2021/09/20 08:40:34;;;;;;;12.37;11.13;;;17.60;99.90;;;;;;5033044;28;20163;-55
2021/09/20 08:43:00;;;;;;;14.53;12.13;;;17.40;99.90;;;;;;5033111;28;20694;-58
2021/09/20 08:45:27;;;;;;;13.47;12.07;;;17.50;99.90;;;;;;5033450;28;20781;-57
2021/09/20 08:47:55;;;;;;;17.17;13.43;;;17.50;99.90;;;;;;5033328;28;20460;-59
2021/09/20 08:50:25;;;;;;;15.53;13.47;;;17.30;99.90;;;;;;5032809;28;20421;-57
2021/09/20 08:52:51;;;;;;;13.10;11.37;;;17.40;99.90;;;;;;5033379;28;20605;-59
2021/09/20 08:55:17;;;;;;;15.40;13.80;;;17.80;99.90;;;;;;5032770;28;20461;-58
2021/09/20 08:57:43;;;;;;;16.77;14.60;;;17.70;99.90;;;;;;5032795;28;20467;-58
2021/09/20 09:00:10;;;;;;;15.80;13.83;;;18.10;99.90;;;;;;5032925;28;20167;-59
2021/09/20 09:02:36;;;;;;;17.80;14.13;;;18.10;99.90;;;;;;5032802;28;20302;-58
2021/09/20 09:05:15;;;;;;;18.73;14.47;;;18.00;99.90;;;;;;5032627;28;20421;-57
2021/09/20 09:07:49;;;;;;;17.00;14.57;;;18.00;99.90;;;;;;5015046;28;20174;-58
2021/09/20 09:10:16;;;;;;;18.50;15.03;;;17.90;99.90;;;;;;5032882;28;20734;-56
2021/09/20 09:12:42;;;;;;;18.57;15.73;;;17.90;99.90;;;;;;5032617;28;20398;-58
2021/09/20 09:15:11;;;;;;;15.90;13.07;;;17.90;99.90;;;;;;5032517;28;20506;-58
2021/09/20 09:17:40;;;;;;;16.80;15.00;;;18.10;99.90;;;;;;5014793;28;20410;-58
2021/09/20 09:20:14;;;;;;;17.83;15.93;;;18.40;99.90;;;;;;5032403;28;20402;-57
2021/09/20 09:22:43;;;;;;;18.53;16.20;;;18.50;99.90;;;;;;5029426;28;20446;-58
2021/09/20 09:25:15;;;;;;;15.97;14.30;;;18.50;99.90;;;;;;5032177;28;20973;-58
2021/09/20 09:27:42;;;;;;;17.57;15.13;;;18.70;99.90;;;;;;5032520;28;20412;-57
2021/09/20 09:30:13;;;;;;;15.27;13.60;;;18.40;99.90;;;;;;5034853;28;20436;-57
2021/09/20 09:32:40;;;;;;;15.20;13.60;;;18.50;99.90;;;;;;5036168;28;20772;-58
2021/09/20 09:35:08;;;;;;;17.43;15.50;;;18.80;99.90;;;;;;5050373;23;20474;-60
2021/09/20 09:37:36;;;;;;;17.40;15.60;;;18.80;99.90;;;;;;5035733;28;20417;-60
2021/09/20 09:40:14;;;;;;;17.00;15.30;;;18.80;99.90;;;;;;5035238;28;20409;-60
2021/09/20 09:42:41;;;;;;;18.90;15.23;;;18.70;99.90;;;;;;5034558;28;20426;-61
2021/09/20 09:45:23;;;;;;;16.30;14.27;;;18.70;99.90;;;;;;5029155;28;20423;-61
2021/09/20 09:47:50;;;;;;;15.10;13.70;;;18.80;99.90;;;;;;5015686;28;20952;-61
2021/09/20 09:50:23;;;;;;;16.63;14.93;;;18.30;99.90;;;;;;5015572;28;20444;-61
2021/09/20 09:52:52;;;;;;;15.30;13.90;;;18.20;99.90;;;;;;5015605;28;20557;-60
2021/09/20 09:55:19;;;;;;;17.43;14.73;;;18.50;99.90;;;;;;5015514;28;20593;-61
2021/09/20 09:57:45;;;;;;;15.17;13.60;;;18.80;99.90;;;;;;5015120;28;20415;-60
2021/09/20 10:00:14;;;;;;;17.57;15.40;;;18.80;99.90;;;;;;5015502;28;20426;-60
2021/09/20 10:02:45;;;;;;;14.50;13.00;;;18.50;99.90;;;;;;5015484;28;20822;-61
2021/09/20 10:05:14;;;;;;;15.67;14.10;;;18.40;99.90;;;;;;5024613;28;20430;-60
2021/09/20 10:07:46;;;;;;;18.30;15.50;;;18.70;99.90;;;;;;5035343;28;20402;-61
2021/09/20 10:10:19;;;;;;;14.97;13.50;;;18.80;99.90;;;;;;5035421;28;20391;-61
2021/09/20 10:12:48;;;;;;;13.30;12.03;;;18.90;99.90;;;;;;5034784;28;20475;-61
2021/09/20 10:15:16;;;;;;;16.87;14.87;;;18.70;99.90;;;;;;5034454;28;20456;-61
2021/09/20 10:17:42;;;;;;;17.00;14.50;;;18.80;99.90;;;;;;5033603;28;20488;-61
2021/09/20 10:20:11;;;;;;;14.97;13.47;;;18.50;99.90;;;;;;5034973;28;20402;-60
2021/09/20 10:22:37;;;;;;;16.97;15.17;;;18.40;99.90;;;;;;5034505;28;20394;-61
2021/09/20 10:25:06;;;;;;;16.23;14.63;;;18.30;99.90;;;;;;5034872;28;20452;-59
2021/09/20 10:27:32;;;;;;;16.70;14.90;;;18.30;99.90;;;;;;5034713;28;20175;-61
2021/09/20 10:30:12;;;;;;;16.60;14.83;;;18.10;99.90;;;;;;5035604;28;20415;-61
2021/09/20 10:32:42;;;;;;;15.33;13.73;;;18.10;99.90;;;;;;5033722;28;20462;-60
2021/09/20 10:35:22;;;;;;;16.70;15.00;;;18.10;99.90;;;;;;5034447;28;20472;-61
2021/09/20 10:37:49;;;;;;;16.60;14.87;;;18.50;99.90;;;;;;5035006;28;20420;-61
2021/09/20 10:40:15;;;;;;;17.97;16.07;;;18.40;99.90;;;;;;5034071;28;20477;-60
2021/09/20 10:42:43;;;;;;;17.70;15.20;;;18.60;99.90;;;;;;5033738;28;20398;-61
2021/09/20 10:45:34;;;;;;;17.57;15.67;;;18.30;99.90;;;;;;5034542;28;20207;-60
2021/09/20 10:48:21;;;;;;;17.07;15.37;;;18.20;99.90;;;;;;5034299;28;21040;-61
2021/09/20 10:50:57;;;;;;;17.70;15.90;;;18.30;99.90;;;;;;5034579;28;20835;-60
2021/09/20 10:53:35;;;;;;;17.30;15.50;;;18.40;99.90;;;;;;5034616;28;20416;-59
2021/09/20 10:56:03;;;;;;;14.90;13.47;;;18.50;99.90;;;;;;5034632;28;20441;-60
2021/09/20 10:58:30;;;;;;;15.33;13.90;;;19.20;99.90;;;;;;5034376;28;20447;-61
2021/09/20 11:01:11;;;;;;;15.87;14.20;;;19.40;99.90;;;;;;5028946;28;20415;-60
2021/09/20 11:03:46;;;;;;;16.93;15.07;;;19.50;99.90;;;;;;5033011;28;20926;-61
2021/09/20 11:06:20;;;;;;;15.67;14.07;;;19.50;99.90;;;;;;5033589;28;20813;-61
2021/09/20 11:09:07;;;;;;;16.00;14.50;;;19.60;99.90;;;;;;5033464;28;20402;-61
2021/09/20 11:11:42;;;;;;;17.27;15.43;;;19.50;99.90;;;;;;5033335;28;20442;-61
2021/09/20 11:14:11;;;;;;;16.00;14.50;;;19.40;99.90;;;;;;5025087;28;20453;-60
2021/09/20 11:16:50;;;;;;;17.27;15.00;;;19.00;99.90;;;;;;5025655;28;20441;-60
2021/09/20 11:19:28;;;;;;;16.20;14.60;;;19.10;99.90;;;;;;5031361;28;20414;-60
2021/09/20 11:22:02;;;;;;;15.43;13.93;;;19.10;99.90;;;;;;5032783;28;20856;-60
2021/09/20 11:24:36;;;;;;;14.90;13.40;;;19.30;99.90;;;;;;5033351;28;20445;-61
2021/09/20 11:27:04;;;;;;;15.53;13.93;;;19.60;99.90;;;;;;5033480;28;20421;-61
2021/09/20 11:29:29;;;;;;;16.60;15.10;;;19.80;99.90;;;;;;5033461;28;20453;-61
2021/09/20 11:31:56;;;;;;;13.77;12.43;;;19.40;99.90;;;;;;5032985;28;20463;-61
2021/09/20 11:34:28;;;;;;;16.83;15.17;;;19.50;99.90;;;;;;5032673;28;20214;-61
2021/09/20 11:36:54;;;;;;;17.07;14.90;;;19.70;99.90;;;;;;5032863;28;20443;-61
2021/09/20 11:39:20;;;;;;;14.70;13.30;;;19.40;99.90;;;;;;5033199;28;20406;-61
2021/09/20 11:41:57;;;;;;;14.93;13.43;;;19.80;99.90;;;;;;5031961;28;20175;-61
2021/09/20 11:44:28;;;;;;;15.60;14.17;;;20.00;99.90;;;;;;5033081;28;20512;-61
2021/09/20 11:46:54;;;;;;;13.53;12.13;;;19.80;99.90;;;;;;5032817;28;20421;-61
2021/09/20 11:49:20;;;;;;;14.83;13.23;;;19.70;99.90;;;;;;5029470;28;20453;-60
2021/09/20 11:51:45;;;;;;;16.00;14.37;;;19.90;99.90;;;;;;5032014;28;20422;-61
2021/09/20 11:54:36;;;;;;;12.97;11.77;;;19.90;99.90;;;;;;5032230;28;20227;-60
2021/09/20 11:57:18;;;;;;;13.87;12.47;;;20.40;99.90;;;;;;5032497;28;20179;-61
2021/09/20 11:59:45;;;;;;;12.47;11.33;;;20.60;99.90;;;;;;5032542;28;20394;-61
2021/09/20 12:02:26;;;;;;;13.00;11.80;;;20.60;99.90;;;;;;5032761;28;20417;-61
2021/09/20 12:04:52;;;;;;;14.20;12.83;;;21.00;99.90;;;;;;5032873;28;20425;-61
2021/09/20 12:07:31;;;;;;;13.13;11.90;;;21.20;99.90;;;;;;5032934;28;20414;-61
2021/09/20 12:09:59;;;;;;;14.80;13.40;;;21.50;99.90;;;;;;5032985;28;20648;-61
2021/09/20 12:12:35;;;;;;;13.73;12.43;;;21.40;99.90;;;;;;5033075;28;20813;-62
2021/09/20 12:15:12;;;;;;;12.93;11.80;;;21.20;99.90;;;;;;5031297;28;20461;-61
2021/09/20 12:17:46;;;;;;;14.73;13.33;;;20.70;99.90;;;;;;5032671;28;20463;-61
2021/09/20 12:20:13;;;;;;;15.47;13.57;;;20.20;99.90;;;;;;5032614;28;20867;-59
2021/09/20 12:22:41;;;;;;;12.77;10.97;;;20.10;99.90;;;;;;5031119;28;20410;-61
2021/09/20 12:25:25;;;;;;;12.53;11.40;;;20.30;99.90;;;;;;5033288;28;20491;-61
2021/09/20 12:27:52;;;;;;;13.70;12.30;;;20.30;99.90;;;;;;5032649;28;20883;-61
2021/09/20 12:30:20;;;;;;;13.90;12.50;;;20.20;99.90;;;;;;5030988;28;20410;-59
2021/09/20 12:32:45;;;;;;;11.90;10.77;;;20.00;99.90;;;;;;5032261;28;20756;-60
2021/09/20 12:35:12;;;;;;;14.17;12.77;;;20.20;99.90;;;;;;5032316;28;20538;-61
2021/09/20 12:37:38;;;;;;;14.00;11.57;;;20.40;99.90;;;;;;5032319;28;20163;-62